createdAt,value
2022-12-03T00:01:21.635Z,38.13
2022-12-03T00:05:48.721Z,37.35
2022-12-03T00:10:12.607Z,36.35
2022-12-03T00:14:37.757Z,35.80
2022-12-03T00:19:02.220Z,38.92
2022-12-03T00:23:25.207Z,37.90
2022-12-03T00:27:49.186Z,36.13
2022-12-03T00:32:11.331Z,37.08
2022-12-03T00:36:33.109Z,35.28
2022-12-03T00:40:55.028Z,35.25
2022-12-03T00:45:18.020Z,36.50
2022-12-03T00:49:40.016Z,34.67
2022-12-03T00:54:02.130Z,35.35
2022-12-03T00:58:24.089Z,35.38
2022-12-03T01:02:46.077Z,33.65
2022-12-03T01:07:07.922Z,36.35
2022-12-03T01:11:39.344Z,33.78
2022-12-03T01:16:01.369Z,33.85
2022-12-03T01:20:23.368Z,33.63
2022-12-03T01:24:48.126Z,33.55
2022-12-03T01:29:09.973Z,33.35
2022-12-03T01:33:32.113Z,33.75
2022-12-03T01:37:54.040Z,34.33
2022-12-03T01:42:26.971Z,33.92
2022-12-03T01:46:50.349Z,33.03
2022-12-03T01:51:14.241Z,34.20
2022-12-03T01:55:36.351Z,34.70
2022-12-03T02:00:00.077Z,32.63
2022-12-03T02:04:23.648Z,32.13
2022-12-03T02:08:46.764Z,31.15
2022-12-03T02:13:10.617Z,30.65
2022-12-03T02:17:32.953Z,31.75
2022-12-03T02:22:15.187Z,30.13
2022-12-03T02:26:37.064Z,30.23
2022-12-03T02:30:59.185Z,31.38
2022-12-03T02:35:25.521Z,30.15
2022-12-03T02:39:53.488Z,29.67
2022-12-03T02:44:15.442Z,27.40
2022-12-03T02:48:40.147Z,30.35
2022-12-03T02:53:07.918Z,29.77
2022-12-03T02:57:30.957Z,29.45
2022-12-03T03:01:56.300Z,27.48
2022-12-03T03:06:22.179Z,27.92
2022-12-03T03:10:45.032Z,29.10
2022-12-03T03:15:14.679Z,27.92
2022-12-03T03:19:37.453Z,28.05
2022-12-03T03:24:03.525Z,28.88
2022-12-03T03:28:26.924Z,28.92
2022-12-03T03:32:54.506Z,29.15
2022-12-03T03:37:16.481Z,29.30
2022-12-03T03:41:43.736Z,28.73
2022-12-03T03:46:07.202Z,29.02
2022-12-03T03:50:30.291Z,27.60
2022-12-03T03:54:52.600Z,28.10
2022-12-03T03:59:15.079Z,29.55
2022-12-03T04:03:37.145Z,28.27
2022-12-03T04:08:06.156Z,27.90
2022-12-03T04:12:47.144Z,29.20
2022-12-03T04:17:09.021Z,29.55
2022-12-03T04:21:53.507Z,31.27
2022-12-03T04:26:34.576Z,29.92
2022-12-03T04:30:56.589Z,31.48
2022-12-03T04:35:37.295Z,32.55
2022-12-03T04:40:01.448Z,32.10
2022-12-03T04:44:38.395Z,31.73
2022-12-03T04:49:00.333Z,32.20
2022-12-03T04:53:22.474Z,31.10
2022-12-03T04:57:44.567Z,32.58
2022-12-03T05:02:07.310Z,34.35
2022-12-03T05:06:29.319Z,33.45
2022-12-03T05:10:51.363Z,32.65
2022-12-03T05:15:16.207Z,35.45
2022-12-03T05:19:56.752Z,33.35
2022-12-03T05:24:18.666Z,32.75
2022-12-03T05:28:41.445Z,34.13
2022-12-03T05:33:03.520Z,33.88
2022-12-03T05:37:25.412Z,32.58
2022-12-03T05:42:06.302Z,33.20
2022-12-03T05:46:35.704Z,35.42
2022-12-03T05:50:57.372Z,33.83
2022-12-03T05:55:20.124Z,31.95
2022-12-03T05:59:41.855Z,32.75
2022-12-03T06:04:04.196Z,32.88
2022-12-03T06:08:25.981Z,31.38
2022-12-03T06:12:48.567Z,36.08
2022-12-03T06:17:13.723Z,29.88
2022-12-03T06:21:35.544Z,33.15
2022-12-03T06:26:00.807Z,30.15
2022-12-03T06:30:23.477Z,30.92
2022-12-03T06:34:48.864Z,33.35
2022-12-03T06:39:10.647Z,33.65
2022-12-03T06:43:32.650Z,33.08
2022-12-03T06:47:55.322Z,33.97
2022-12-03T06:52:20.510Z,32.85
2022-12-03T06:56:45.446Z,32.13
2022-12-03T07:01:07.595Z,31.63
2022-12-03T07:06:43.949Z,29.80
2022-12-03T07:11:26.015Z,28.33
2022-12-03T07:15:47.978Z,30.25
2022-12-03T07:20:10.784Z,30.23
2022-12-03T07:24:32.824Z,29.88
2022-12-03T07:28:54.796Z,29.10
2022-12-03T07:33:16.732Z,29.27
2022-12-03T07:37:38.859Z,29.15
2022-12-03T07:42:00.928Z,29.33
2022-12-03T07:46:23.466Z,30.73
2022-12-03T07:50:45.352Z,29.80
2022-12-03T07:55:07.953Z,28.67
2022-12-03T07:59:30.489Z,31.75
2022-12-03T08:03:52.637Z,29.75
2022-12-03T08:08:14.787Z,30.95
2022-12-03T08:12:42.057Z,31.63
2022-12-03T08:17:11.591Z,30.08
2022-12-03T08:21:36.382Z,31.15
2022-12-03T08:26:02.248Z,31.40
2022-12-03T08:30:24.371Z,30.35
2022-12-03T08:34:46.060Z,30.45
2022-12-03T08:39:34.701Z,30.30
2022-12-03T08:43:58.408Z,33.40
2022-12-03T08:48:38.230Z,32.42
2022-12-03T08:53:14.454Z,29.50
2022-12-03T08:57:36.649Z,31.40
2022-12-03T09:02:01.985Z,30.40
2022-12-03T09:06:23.638Z,32.30
2022-12-03T09:10:45.814Z,28.52
2022-12-03T09:15:08.770Z,29.00
2022-12-03T09:19:33.623Z,28.63
2022-12-03T09:23:55.409Z,27.98
2022-12-03T09:28:21.655Z,28.85
2022-12-03T09:32:44.799Z,28.52
2022-12-03T09:37:07.467Z,28.27
2022-12-03T09:41:29.494Z,27.92
2022-12-03T09:45:51.410Z,29.40
2022-12-03T09:50:24.236Z,27.67
2022-12-03T09:54:48.445Z,28.55
2022-12-03T09:59:15.593Z,28.15
2022-12-03T10:03:41.501Z,29.15
2022-12-03T10:08:18.589Z,27.88
2022-12-03T10:12:40.384Z,28.42
2022-12-03T10:17:02.311Z,28.38
2022-12-03T10:21:37.988Z,26.70
2022-12-03T10:26:03.752Z,28.98
2022-12-03T10:30:28.582Z,28.23
2022-12-03T10:34:50.893Z,29.50
2022-12-03T10:39:17.074Z,28.52
2022-12-03T10:43:38.976Z,27.83
2022-12-03T10:48:07.371Z,26.95
2022-12-03T10:52:29.083Z,27.73
2022-12-03T10:56:52.713Z,26.17
2022-12-03T11:01:25.469Z,27.38
2022-12-03T11:05:48.090Z,26.50
2022-12-03T11:10:18.684Z,27.85
2022-12-03T11:14:53.094Z,27.60
2022-12-03T11:19:18.190Z,29.42
2022-12-03T11:23:46.109Z,28.02
2022-12-03T11:28:13.980Z,30.33
2022-12-03T11:32:38.542Z,29.60
2022-12-03T11:37:12.499Z,29.15
2022-12-03T11:41:35.856Z,30.27
2022-12-03T11:46:09.946Z,29.58
2022-12-03T11:50:40.437Z,31.77
2022-12-03T11:55:18.981Z,29.08
2022-12-03T11:59:59.192Z,28.80
2022-12-03T12:04:34.993Z,30.58
2022-12-03T12:09:00.618Z,30.05
2022-12-03T12:13:31.772Z,28.95
2022-12-03T12:17:53.634Z,30.27
2022-12-03T12:22:24.234Z,28.77
2022-12-03T12:26:52.439Z,32.10
2022-12-03T12:31:14.341Z,30.98
2022-12-03T12:35:37.025Z,29.63
2022-12-03T12:40:00.774Z,30.95
2022-12-03T12:44:23.654Z,29.42
2022-12-03T12:48:45.219Z,30.05
2022-12-03T12:53:33.090Z,28.33
2022-12-03T12:58:00.031Z,30.38
2022-12-03T13:02:31.230Z,30.92
2022-12-03T13:06:55.640Z,30.48
2022-12-03T13:11:41.380Z,31.38
2022-12-03T13:16:11.823Z,31.70
2022-12-03T13:20:33.879Z,34.63
2022-12-03T13:24:58.640Z,34.00
2022-12-03T13:29:22.837Z,33.03
2022-12-03T13:33:44.761Z,33.72
2022-12-03T13:38:15.636Z,35.55
2022-12-03T13:42:45.221Z,33.40
2022-12-03T13:47:19.587Z,32.72
2022-12-03T13:51:42.964Z,33.15
2022-12-03T13:56:27.727Z,33.72
2022-12-03T14:00:49.740Z,32.25
2022-12-03T14:05:11.725Z,32.35
2022-12-03T14:09:35.272Z,28.13
2022-12-03T14:13:57.429Z,27.88
2022-12-03T14:18:19.522Z,27.17
2022-12-03T14:22:41.404Z,26.48
2022-12-03T14:27:03.311Z,28.42
2022-12-03T14:31:25.416Z,29.05
2022-12-03T14:35:47.442Z,27.90
2022-12-03T14:40:09.892Z,27.88
2022-12-03T14:44:31.574Z,24.63
2022-12-03T14:48:53.481Z,24.73
2022-12-03T14:53:15.514Z,16.48
2022-12-03T14:57:37.461Z,11.93
2022-12-03T15:01:59.473Z,11.38
2022-12-03T15:06:21.208Z,9.95
2022-12-03T15:10:43.186Z,9.05
2022-12-03T15:15:05.777Z,8.07
2022-12-03T15:19:27.678Z,9.48
2022-12-03T15:23:49.694Z,8.73
2022-12-03T15:28:11.821Z,8.65
2022-12-03T15:32:33.843Z,9.65
2022-12-03T15:36:55.883Z,9.10
2022-12-03T15:41:21.465Z,10.10
2022-12-03T15:45:43.582Z,10.13
2022-12-03T15:50:06.665Z,9.90
2022-12-03T15:54:28.522Z,10.02
2022-12-03T15:58:50.628Z,9.88
2022-12-03T16:03:12.509Z,10.57
2022-12-03T16:07:35.143Z,11.98
2022-12-03T16:11:57.156Z,11.27
2022-12-03T16:16:19.055Z,10.27
2022-12-03T16:20:41.160Z,12.50
2022-12-03T16:25:04.451Z,11.82
2022-12-03T16:29:26.387Z,12.57
2022-12-03T16:33:49.069Z,13.35
2022-12-03T16:38:10.814Z,12.63
2022-12-03T16:42:32.862Z,13.27
2022-12-03T16:46:54.818Z,12.75
2022-12-03T16:51:19.414Z,12.85
2022-12-03T16:55:41.461Z,13.40
2022-12-03T17:00:05.536Z,13.68
2022-12-03T17:04:27.685Z,14.32
2022-12-03T17:08:50.114Z,11.50
2022-12-03T17:13:12.241Z,13.73
2022-12-03T17:17:34.243Z,13.10
2022-12-03T17:21:56.131Z,13.30
2022-12-03T17:26:19.779Z,12.07
2022-12-03T17:30:41.714Z,12.70
2022-12-03T17:35:04.506Z,13.52
2022-12-03T17:39:26.304Z,11.98
2022-12-03T17:43:49.643Z,13.20
2022-12-03T17:48:11.503Z,11.13
2022-12-03T17:52:33.549Z,12.07
2022-12-03T17:56:55.473Z,10.82
2022-12-03T18:01:17.467Z,10.38
2022-12-03T18:05:40.027Z,12.70
2022-12-03T18:10:01.914Z,10.07
2022-12-03T18:14:23.656Z,9.65
2022-12-03T18:18:45.846Z,13.75
2022-12-03T18:23:07.928Z,13.80
2022-12-03T18:27:29.761Z,12.88
2022-12-03T18:31:51.810Z,13.43
2022-12-03T18:36:23.139Z,13.75
2022-12-03T18:40:46.382Z,12.38
2022-12-03T18:45:13.021Z,12.50
2022-12-03T18:49:34.497Z,13.30
2022-12-03T18:53:56.605Z,13.70
2022-12-03T18:58:19.395Z,10.90
2022-12-03T19:07:23.050Z,11.13
2022-12-03T19:11:45.202Z,12.38
2022-12-03T19:16:08.914Z,11.48
2022-12-03T19:20:30.891Z,11.15
2022-12-03T19:24:52.689Z,10.07
2022-12-03T19:29:14.714Z,11.20
2022-12-03T19:33:36.984Z,10.07
2022-12-03T19:37:58.742Z,12.00
2022-12-03T19:42:20.920Z,11.82
2022-12-03T19:46:43.822Z,10.30
2022-12-03T19:51:33.062Z,12.07
2022-12-03T19:55:49.131Z,10.50
2022-12-03T20:00:12.255Z,8.57
2022-12-03T20:04:37.540Z,10.18
2022-12-03T20:09:04.801Z,11.55
2022-12-03T20:13:27.136Z,9.73
2022-12-03T20:17:50.796Z,10.50
2022-12-03T20:22:12.809Z,9.85
2022-12-03T20:26:35.032Z,11.30
2022-12-03T20:31:09.646Z,10.98
2022-12-03T20:35:33.080Z,11.00
2022-12-03T20:39:55.313Z,10.52
2022-12-03T20:44:17.541Z,10.48
2022-12-03T20:48:40.962Z,9.45
2022-12-03T20:53:23.624Z,9.60
2022-12-03T20:57:44.886Z,9.43
2022-12-03T21:02:06.990Z,9.75
2022-12-03T21:06:30.133Z,10.20
2022-12-03T21:10:51.949Z,10.15
2022-12-03T21:15:13.873Z,10.45
2022-12-03T21:19:36.070Z,10.30
2022-12-03T21:23:58.246Z,11.00
2022-12-03T21:28:20.068Z,10.50
2022-12-03T21:32:42.332Z,10.20
2022-12-03T21:37:04.672Z,10.93
2022-12-03T21:41:26.957Z,11.38
2022-12-03T21:45:49.625Z,11.60
2022-12-03T21:50:12.058Z,10.52
2022-12-03T21:54:34.232Z,10.48
2022-12-03T21:58:56.149Z,11.00
2022-12-03T22:03:18.522Z,10.85
2022-12-03T22:07:41.027Z,10.45
2022-12-03T22:12:03.190Z,9.85
2022-12-03T22:16:25.381Z,10.68
2022-12-03T22:20:47.084Z,10.43
2022-12-03T22:25:09.489Z,10.20
2022-12-03T22:29:32.444Z,10.48
2022-12-03T22:33:54.378Z,10.73
2022-12-03T22:38:16.315Z,10.68
2022-12-03T22:42:38.158Z,9.25
2022-12-03T22:46:59.969Z,10.52
2022-12-03T22:51:25.481Z,9.48
2022-12-03T22:55:56.926Z,9.93
2022-12-03T23:00:31.399Z,10.40
2022-12-03T23:04:55.810Z,9.43
2022-12-03T23:09:17.549Z,9.40
2022-12-03T23:13:39.481Z,9.15
2022-12-03T23:18:01.410Z,8.95
2022-12-03T23:22:23.067Z,9.32
2022-12-03T23:26:45.065Z,8.38
2022-12-03T23:31:33.420Z,8.48
2022-12-03T23:35:55.616Z,7.72
2022-12-03T23:40:17.783Z,9.45
2022-12-03T23:44:39.709Z,9.35
2022-12-03T23:49:01.587Z,9.63
2022-12-03T23:53:23.538Z,8.70
2022-12-03T23:57:45.953Z,8.88
